sensor_id;sensor_type;location;lat;lon;timestamp;P1;durP1;ratioP1;P2;durP2;ratioP2
13435;SDS011;6790;49.520;8.504;2023-06-01T00:01:45;5.23;;;2.80;;
13435;SDS011;6790;49.520;8.504;2023-06-01T00:04:11;4.10;;;2.43;;
13435;SDS011;6790;49.520;8.504;2023-06-01T00:06:38;3.10;;;2.53;;
13435;SDS011;6790;49.520;8.504;2023-06-01T00:09:04;3.37;;;2.33;;
13435;SDS011;6790;49.520;8.504;2023-06-01T00:11:31;2.83;;;2.50;;
13435;SDS011;6790;49.520;8.504;2023-06-01T00:13:56;4.67;;;2.63;;
13435;SDS011;6790;49.520;8.504;2023-06-01T00:16:22;5.20;;;2.47;;
13435;SDS011;6790;49.520;8.504;2023-06-01T00:18:48;3.27;;;2.43;;
13435;SDS011;6790;49.520;8.504;2023-06-01T00:21:17;3.80;;;2.40;;
13435;SDS011;6790;49.520;8.504;2023-06-01T00:23:44;3.20;;;2.60;;
13435;SDS011;6790;49.520;8.504;2023-06-01T00:26:11;4.57;;;2.63;;
13435;SDS011;6790;49.520;8.504;2023-06-01T00:28:36;3.97;;;2.30;;
13435;SDS011;6790;49.520;8.504;2023-06-01T00:31:02;6.87;;;2.50;;
13435;SDS011;6790;49.520;8.504;2023-06-01T00:33:28;4.67;;;2.57;;
13435;SDS011;6790;49.520;8.504;2023-06-01T00:35:53;4.60;;;2.50;;
13435;SDS011;6790;49.520;8.504;2023-06-01T00:38:19;3.93;;;2.60;;
13435;SDS011;6790;49.520;8.504;2023-06-01T00:40:45;5.07;;;2.40;;
13435;SDS011;6790;49.520;8.504;2023-06-01T00:43:15;4.00;;;2.53;;
13435;SDS011;6790;49.520;8.504;2023-06-01T00:45:41;4.07;;;2.47;;
13435;SDS011;6790;49.520;8.504;2023-06-01T00:48:07;3.97;;;2.70;;
13435;SDS011;6790;49.520;8.504;2023-06-01T00:50:33;2.43;;;2.20;;
13435;SDS011;6790;49.520;8.504;2023-06-01T00:53:00;2.83;;;2.30;;
13435;SDS011;6790;49.520;8.504;2023-06-01T00:55:27;3.20;;;2.50;;
13435;SDS011;6790;49.520;8.504;2023-06-01T00:57:54;4.73;;;2.57;;
13435;SDS011;6790;49.520;8.504;2023-06-01T01:00:20;3.37;;;2.30;;
13435;SDS011;6790;49.520;8.504;2023-06-01T01:02:47;3.77;;;2.60;;
13435;SDS011;6790;49.520;8.504;2023-06-01T01:05:14;4.47;;;2.80;;
13435;SDS011;6790;49.520;8.504;2023-06-01T01:13:14;6.43;;;2.70;;
13435;SDS011;6790;49.520;8.504;2023-06-01T01:15:58;5.00;;;2.70;;
13435;SDS011;6790;49.520;8.504;2023-06-01T01:21:28;3.87;;;2.60;;
13435;SDS011;6790;49.520;8.504;2023-06-01T01:26:52;6.27;;;2.90;;
13435;SDS011;6790;49.520;8.504;2023-06-01T01:30:02;4.30;;;2.70;;
13435;SDS011;6790;49.520;8.504;2023-06-01T01:32:31;4.07;;;2.60;;
13435;SDS011;6790;49.520;8.504;2023-06-01T01:34:58;7.27;;;2.80;;
13435;SDS011;6790;49.520;8.504;2023-06-01T01:37:25;4.07;;;2.50;;
13435;SDS011;6790;49.520;8.504;2023-06-01T01:39:51;5.37;;;2.63;;
13435;SDS011;6790;49.520;8.504;2023-06-01T01:42:17;6.27;;;2.97;;
13435;SDS011;6790;49.520;8.504;2023-06-01T01:44:43;5.03;;;2.80;;
13435;SDS011;6790;49.520;8.504;2023-06-01T01:47:21;3.20;;;2.50;;
13435;SDS011;6790;49.520;8.504;2023-06-01T01:50:09;6.17;;;2.80;;
13435;SDS011;6790;49.520;8.504;2023-06-01T01:52:38;7.07;;;2.80;;
13435;SDS011;6790;49.520;8.504;2023-06-01T01:55:07;5.93;;;2.60;;
13435;SDS011;6790;49.520;8.504;2023-06-01T01:57:34;4.77;;;2.67;;
13435;SDS011;6790;49.520;8.504;2023-06-01T02:00:01;3.43;;;2.70;;
13435;SDS011;6790;49.520;8.504;2023-06-01T02:02:31;4.13;;;2.80;;
13435;SDS011;6790;49.520;8.504;2023-06-01T02:04:57;3.67;;;2.80;;
13435;SDS011;6790;49.520;8.504;2023-06-01T02:07:22;6.23;;;3.00;;
13435;SDS011;6790;49.520;8.504;2023-06-01T02:09:48;4.33;;;2.63;;
13435;SDS011;6790;49.520;8.504;2023-06-01T02:12:14;4.40;;;2.73;;
13435;SDS011;6790;49.520;8.504;2023-06-01T02:14:40;5.67;;;3.03;;
13435;SDS011;6790;49.520;8.504;2023-06-01T02:17:05;5.33;;;2.90;;
13435;SDS011;6790;49.520;8.504;2023-06-01T02:19:32;5.30;;;2.90;;
13435;SDS011;6790;49.520;8.504;2023-06-01T02:21:58;10.03;;;2.67;;
13435;SDS011;6790;49.520;8.504;2023-06-01T02:24:24;4.13;;;2.73;;
13435;SDS011;6790;49.520;8.504;2023-06-01T02:26:50;5.40;;;2.67;;
13435;SDS011;6790;49.520;8.504;2023-06-01T02:29:19;4.53;;;2.80;;
13435;SDS011;6790;49.520;8.504;2023-06-01T02:31:48;4.63;;;2.70;;
13435;SDS011;6790;49.520;8.504;2023-06-01T02:34:15;6.13;;;2.90;;
13435;SDS011;6790;49.520;8.504;2023-06-01T02:36:42;4.50;;;2.67;;
13435;SDS011;6790;49.520;8.504;2023-06-01T02:39:08;6.37;;;2.63;;
13435;SDS011;6790;49.520;8.504;2023-06-01T02:41:34;6.57;;;2.80;;
13435;SDS011;6790;49.520;8.504;2023-06-01T02:44:00;7.43;;;2.80;;
13435;SDS011;6790;49.520;8.504;2023-06-01T02:46:26;4.10;;;2.60;;
13435;SDS011;6790;49.520;8.504;2023-06-01T02:48:52;4.80;;;2.87;;
13435;SDS011;6790;49.520;8.504;2023-06-01T02:51:18;5.03;;;3.00;;
13435;SDS011;6790;49.520;8.504;2023-06-01T02:53:44;3.40;;;2.73;;
13435;SDS011;6790;49.520;8.504;2023-06-01T02:56:11;4.37;;;2.70;;
13435;SDS011;6790;49.520;8.504;2023-06-01T02:58:37;4.50;;;2.93;;
13435;SDS011;6790;49.520;8.504;2023-06-01T03:01:03;5.70;;;2.70;;
13435;SDS011;6790;49.520;8.504;2023-06-01T03:03:29;6.43;;;3.03;;
13435;SDS011;6790;49.520;8.504;2023-06-01T03:05:55;9.17;;;3.23;;
13435;SDS011;6790;49.520;8.504;2023-06-01T03:08:22;5.90;;;2.50;;
13435;SDS011;6790;49.520;8.504;2023-06-01T03:10:51;4.43;;;2.50;;
13435;SDS011;6790;49.520;8.504;2023-06-01T03:13:17;5.17;;;2.83;;
13435;SDS011;6790;49.520;8.504;2023-06-01T03:15:42;4.33;;;3.00;;
13435;SDS011;6790;49.520;8.504;2023-06-01T03:18:08;5.27;;;2.80;;
13435;SDS011;6790;49.520;8.504;2023-06-01T03:20:34;4.10;;;2.70;;
13435;SDS011;6790;49.520;8.504;2023-06-01T03:23:00;3.97;;;2.53;;
13435;SDS011;6790;49.520;8.504;2023-06-01T03:25:25;3.77;;;2.83;;
13435;SDS011;6790;49.520;8.504;2023-06-01T03:27:51;4.37;;;2.90;;
13435;SDS011;6790;49.520;8.504;2023-06-01T03:30:17;4.27;;;2.53;;
13435;SDS011;6790;49.520;8.504;2023-06-01T03:32:43;5.67;;;2.63;;
13435;SDS011;6790;49.520;8.504;2023-06-01T03:35:11;4.33;;;2.80;;
13435;SDS011;6790;49.520;8.504;2023-06-01T03:37:38;5.07;;;2.83;;
13435;SDS011;6790;49.520;8.504;2023-06-01T03:40:08;3.37;;;2.30;;
13435;SDS011;6790;49.520;8.504;2023-06-01T03:42:41;4.73;;;2.80;;
13435;SDS011;6790;49.520;8.504;2023-06-01T03:45:12;4.40;;;2.77;;
13435;SDS011;6790;49.520;8.504;2023-06-01T03:47:39;4.03;;;2.93;;
13435;SDS011;6790;49.520;8.504;2023-06-01T03:50:06;4.93;;;2.80;;
13435;SDS011;6790;49.520;8.504;2023-06-01T03:52:34;10.63;;;7.10;;
13435;SDS011;6790;49.520;8.504;2023-06-01T03:55:02;13.33;;;10.30;;
13435;SDS011;6790;49.520;8.504;2023-06-01T03:57:33;10.63;;;7.07;;
13435;SDS011;6790;49.520;8.504;2023-06-01T04:00:00;5.13;;;3.80;;
13435;SDS011;6790;49.520;8.504;2023-06-01T04:02:28;4.07;;;2.97;;
13435;SDS011;6790;49.520;8.504;2023-06-01T04:04:54;4.17;;;2.90;;
13435;SDS011;6790;49.520;8.504;2023-06-01T04:07:20;3.20;;;2.67;;
13435;SDS011;6790;49.520;8.504;2023-06-01T04:09:47;2.93;;;2.50;;
13435;SDS011;6790;49.520;8.504;2023-06-01T04:12:13;5.70;;;2.97;;
13435;SDS011;6790;49.520;8.504;2023-06-01T04:14:40;4.90;;;2.83;;
13435;SDS011;6790;49.520;8.504;2023-06-01T04:17:06;6.30;;;3.03;;
13435;SDS011;6790;49.520;8.504;2023-06-01T04:19:32;3.20;;;2.70;;
13435;SDS011;6790;49.520;8.504;2023-06-01T04:21:59;3.90;;;2.57;;
13435;SDS011;6790;49.520;8.504;2023-06-01T04:24:25;6.53;;;2.60;;
13435;SDS011;6790;49.520;8.504;2023-06-01T04:26:51;3.07;;;2.50;;
13435;SDS011;6790;49.520;8.504;2023-06-01T04:29:17;3.50;;;2.90;;
13435;SDS011;6790;49.520;8.504;2023-06-01T04:31:46;3.67;;;2.77;;
13435;SDS011;6790;49.520;8.504;2023-06-01T04:34:11;5.53;;;2.97;;
13435;SDS011;6790;49.520;8.504;2023-06-01T04:36:37;3.97;;;2.90;;
13435;SDS011;6790;49.520;8.504;2023-06-01T04:39:04;3.47;;;2.90;;
13435;SDS011;6790;49.520;8.504;2023-06-01T04:41:32;4.07;;;2.73;;
13435;SDS011;6790;49.520;8.504;2023-06-01T04:44:00;3.63;;;2.63;;
13435;SDS011;6790;49.520;8.504;2023-06-01T04:46:31;4.03;;;2.63;;
13435;SDS011;6790;49.520;8.504;2023-06-01T04:48:57;4.40;;;2.80;;
13435;SDS011;6790;49.520;8.504;2023-06-01T04:51:24;5.27;;;2.67;;
13435;SDS011;6790;49.520;8.504;2023-06-01T04:53:52;3.70;;;2.80;;
13435;SDS011;6790;49.520;8.504;2023-06-01T04:56:19;4.27;;;2.67;;
13435;SDS011;6790;49.520;8.504;2023-06-01T04:58:50;4.07;;;2.87;;
13435;SDS011;6790;49.520;8.504;2023-06-01T05:01:17;6.00;;;2.80;;
13435;SDS011;6790;49.520;8.504;2023-06-01T05:03:43;5.37;;;2.60;;
13435;SDS011;6790;49.520;8.504;2023-06-01T05:06:11;6.60;;;2.97;;
13435;SDS011;6790;49.520;8.504;2023-06-01T05:08:41;3.47;;;2.57;;
13435;SDS011;6790;49.520;8.504;2023-06-01T05:11:07;3.70;;;2.70;;
13435;SDS011;6790;49.520;8.504;2023-06-01T05:13:34;4.40;;;3.10;;
13435;SDS011;6790;49.520;8.504;2023-06-01T05:16:04;3.30;;;2.67;;
13435;SDS011;6790;49.520;8.504;2023-06-01T05:18:31;4.53;;;2.70;;
13435;SDS011;6790;49.520;8.504;2023-06-01T05:20:58;3.87;;;2.60;;
13435;SDS011;6790;49.520;8.504;2023-06-01T05:23:24;8.33;;;2.60;;
13435;SDS011;6790;49.520;8.504;2023-06-01T05:25:51;5.10;;;2.77;;
13435;SDS011;6790;49.520;8.504;2023-06-01T05:28:24;3.57;;;2.70;;
13435;SDS011;6790;49.520;8.504;2023-06-01T05:30:50;4.00;;;2.40;;
13435;SDS011;6790;49.520;8.504;2023-06-01T05:33:16;5.40;;;2.90;;
13435;SDS011;6790;49.520;8.504;2023-06-01T05:35:41;5.47;;;2.80;;
13435;SDS011;6790;49.520;8.504;2023-06-01T05:38:07;5.50;;;3.00;;
13435;SDS011;6790;49.520;8.504;2023-06-01T05:40:33;4.60;;;2.53;;
13435;SDS011;6790;49.520;8.504;2023-06-01T05:42:58;6.60;;;2.70;;
13435;SDS011;6790;49.520;8.504;2023-06-01T05:45:24;3.40;;;2.63;;
13435;SDS011;6790;49.520;8.504;2023-06-01T05:47:50;3.60;;;2.70;;
13435;SDS011;6790;49.520;8.504;2023-06-01T05:50:15;4.30;;;3.00;;
13435;SDS011;6790;49.520;8.504;2023-06-01T05:52:41;3.40;;;2.60;;
13435;SDS011;6790;49.520;8.504;2023-06-01T05:55:07;7.03;;;2.60;;
13435;SDS011;6790;49.520;8.504;2023-06-01T05:57:33;4.43;;;2.63;;
13435;SDS011;6790;49.520;8.504;2023-06-01T05:59:59;3.87;;;2.50;;
13435;SDS011;6790;49.520;8.504;2023-06-01T06:02:25;4.40;;;3.10;;
13435;SDS011;6790;49.520;8.504;2023-06-01T06:04:50;4.57;;;2.60;;
13435;SDS011;6790;49.520;8.504;2023-06-01T06:07:16;4.63;;;2.90;;
13435;SDS011;6790;49.520;8.504;2023-06-01T06:09:42;8.50;;;2.80;;
13435;SDS011;6790;49.520;8.504;2023-06-01T06:12:07;6.10;;;2.80;;
13435;SDS011;6790;49.520;8.504;2023-06-01T06:14:33;7.73;;;2.70;;
13435;SDS011;6790;49.520;8.504;2023-06-01T06:16:59;5.50;;;2.83;;
13435;SDS011;6790;49.520;8.504;2023-06-01T06:19:25;8.00;;;2.83;;
13435;SDS011;6790;49.520;8.504;2023-06-01T06:21:51;2.60;;;2.30;;
13435;SDS011;6790;49.520;8.504;2023-06-01T06:24:16;4.00;;;2.57;;
13435;SDS011;6790;49.520;8.504;2023-06-01T06:26:42;6.33;;;2.73;;
13435;SDS011;6790;49.520;8.504;2023-06-01T06:29:08;10.13;;;2.70;;
13435;SDS011;6790;49.520;8.504;2023-06-01T06:31:34;4.70;;;2.80;;
13435;SDS011;6790;49.520;8.504;2023-06-01T06:33:59;4.63;;;2.53;;
13435;SDS011;6790;49.520;8.504;2023-06-01T06:36:25;5.47;;;2.80;;
13435;SDS011;6790;49.520;8.504;2023-06-01T06:38:51;5.38;;;2.75;;
13435;SDS011;6790;49.520;8.504;2023-06-01T06:41:17;2.63;;;2.42;;
13435;SDS011;6790;49.520;8.504;2023-06-01T06:43:42;3.58;;;2.80;;
13435;SDS011;6790;49.520;8.504;2023-06-01T06:46:08;5.97;;;2.80;;
13435;SDS011;6790;49.520;8.504;2023-06-01T06:48:34;3.83;;;2.80;;
13435;SDS011;6790;49.520;8.504;2023-06-01T06:51:02;7.28;;;2.92;;
13435;SDS011;6790;49.520;8.504;2023-06-01T06:53:28;4.15;;;2.53;;
13435;SDS011;6790;49.520;8.504;2023-06-01T06:55:54;5.07;;;2.67;;
13435;SDS011;6790;49.520;8.504;2023-06-01T06:58:20;4.68;;;2.85;;
13435;SDS011;6790;49.520;8.504;2023-06-01T07:00:45;5.97;;;3.08;;
13435;SDS011;6790;49.520;8.504;2023-06-01T07:03:11;3.85;;;2.97;;
13435;SDS011;6790;49.520;8.504;2023-06-01T07:05:37;3.17;;;2.67;;
13435;SDS011;6790;49.520;8.504;2023-06-01T07:08:03;4.40;;;3.15;;
13435;SDS011;6790;49.520;8.504;2023-06-01T07:10:29;6.53;;;2.53;;
13435;SDS011;6790;49.520;8.504;2023-06-01T07:12:54;7.75;;;2.58;;
13435;SDS011;6790;49.520;8.504;2023-06-01T07:15:20;3.83;;;2.78;;
13435;SDS011;6790;49.520;8.504;2023-06-01T07:17:46;5.72;;;2.95;;
13435;SDS011;6790;49.520;8.504;2023-06-01T07:20:12;3.15;;;2.72;;
13435;SDS011;6790;49.520;8.504;2023-06-01T07:22:38;4.32;;;2.72;;
13435;SDS011;6790;49.520;8.504;2023-06-01T07:25:04;5.00;;;3.00;;
13435;SDS011;6790;49.520;8.504;2023-06-01T07:27:31;3.70;;;2.50;;
13435;SDS011;6790;49.520;8.504;2023-06-01T07:30:00;3.30;;;2.35;;
13435;SDS011;6790;49.520;8.504;2023-06-01T07:32:27;4.05;;;2.63;;
13435;SDS011;6790;49.520;8.504;2023-06-01T07:34:53;12.35;;;2.78;;
13435;SDS011;6790;49.520;8.504;2023-06-01T07:37:22;4.75;;;2.70;;
13435;SDS011;6790;49.520;8.504;2023-06-01T07:39:51;3.88;;;2.80;;
13435;SDS011;6790;49.520;8.504;2023-06-01T07:42:16;5.85;;;2.78;;
13435;SDS011;6790;49.520;8.504;2023-06-01T07:44:42;3.03;;;2.72;;
13435;SDS011;6790;49.520;8.504;2023-06-01T07:47:08;7.32;;;2.92;;
13435;SDS011;6790;49.520;8.504;2023-06-01T07:49:34;4.97;;;3.58;;
13435;SDS011;6790;49.520;8.504;2023-06-01T07:52:01;5.63;;;2.60;;
13435;SDS011;6790;49.520;8.504;2023-06-01T07:54:28;4.03;;;3.13;;
13435;SDS011;6790;49.520;8.504;2023-06-01T07:56:54;7.15;;;2.85;;
13435;SDS011;6790;49.520;8.504;2023-06-01T07:59:21;6.88;;;3.13;;
13435;SDS011;6790;49.520;8.504;2023-06-01T08:01:48;7.10;;;2.63;;
13435;SDS011;6790;49.520;8.504;2023-06-01T08:04:15;10.30;;;3.15;;
13435;SDS011;6790;49.520;8.504;2023-06-01T08:06:41;5.45;;;2.70;;
13435;SDS011;6790;49.520;8.504;2023-06-01T08:09:08;6.15;;;3.20;;
13435;SDS011;6790;49.520;8.504;2023-06-01T08:11:35;3.83;;;3.22;;
13435;SDS011;6790;49.520;8.504;2023-06-01T08:14:01;4.15;;;2.60;;
13435;SDS011;6790;49.520;8.504;2023-06-01T08:16:29;5.07;;;3.05;;
13435;SDS011;6790;49.520;8.504;2023-06-01T08:18:55;4.00;;;2.83;;
13435;SDS011;6790;49.520;8.504;2023-06-01T08:21:22;5.05;;;3.20;;
13435;SDS011;6790;49.520;8.504;2023-06-01T08:23:50;3.60;;;2.85;;
13435;SDS011;6790;49.520;8.504;2023-06-01T08:26:19;3.90;;;2.88;;
13435;SDS011;6790;49.520;8.504;2023-06-01T08:28:46;4.97;;;2.78;;
13435;SDS011;6790;49.520;8.504;2023-06-01T08:31:17;3.00;;;2.67;;
13435;SDS011;6790;49.520;8.504;2023-06-01T08:33:44;3.58;;;2.75;;
13435;SDS011;6790;49.520;8.504;2023-06-01T08:36:10;4.93;;;3.08;;
13435;SDS011;6790;49.520;8.504;2023-06-01T08:38:36;6.13;;;3.45;;
13435;SDS011;6790;49.520;8.504;2023-06-01T08:44:05;3.25;;;2.65;;
13435;SDS011;6790;49.520;8.504;2023-06-01T08:46:33;4.20;;;2.72;;
13435;SDS011;6790;49.520;8.504;2023-06-01T08:48:59;4.90;;;2.78;;
13435;SDS011;6790;49.520;8.504;2023-06-01T08:51:26;6.28;;;3.20;;
13435;SDS011;6790;49.520;8.504;2023-06-01T08:53:54;5.32;;;2.92;;
13435;SDS011;6790;49.520;8.504;2023-06-01T08:56:22;4.85;;;3.20;;
13435;SDS011;6790;49.520;8.504;2023-06-01T08:58:48;7.50;;;2.95;;
13435;SDS011;6790;49.520;8.504;2023-06-01T09:01:19;3.38;;;2.55;;
13435;SDS011;6790;49.520;8.504;2023-06-01T09:03:50;2.80;;;2.53;;
13435;SDS011;6790;49.520;8.504;2023-06-01T09:06:17;5.13;;;2.85;;
13435;SDS011;6790;49.520;8.504;2023-06-01T09:08:45;4.78;;;2.78;;
13435;SDS011;6790;49.520;8.504;2023-06-01T09:11:11;4.63;;;2.83;;
13435;SDS011;6790;49.520;8.504;2023-06-01T09:13:38;4.80;;;2.70;;
13435;SDS011;6790;49.520;8.504;2023-06-01T09:16:05;4.65;;;2.72;;
13435;SDS011;6790;49.520;8.504;2023-06-01T09:18:32;5.38;;;2.95;;
13435;SDS011;6790;49.520;8.504;2023-06-01T09:21:10;5.28;;;2.67;;
13435;SDS011;6790;49.520;8.504;2023-06-01T09:23:38;3.33;;;2.60;;
13435;SDS011;6790;49.520;8.504;2023-06-01T09:26:04;4.20;;;2.72;;
13435;SDS011;6790;49.520;8.504;2023-06-01T09:34:10;6.55;;;2.83;;
13435;SDS011;6790;49.520;8.504;2023-06-01T09:36:43;10.07;;;2.90;;
13435;SDS011;6790;49.520;8.504;2023-06-01T09:39:13;4.35;;;3.10;;
13435;SDS011;6790;49.520;8.504;2023-06-01T09:41:58;3.13;;;2.40;;
13435;SDS011;6790;49.520;8.504;2023-06-01T09:44:31;5.40;;;2.78;;
13435;SDS011;6790;49.520;8.504;2023-06-01T09:47:00;5.20;;;2.97;;
13435;SDS011;6790;49.520;8.504;2023-06-01T09:49:29;4.55;;;2.70;;
13435;SDS011;6790;49.520;8.504;2023-06-01T09:57:11;3.00;;;2.60;;
13435;SDS011;6790;49.520;8.504;2023-06-01T09:59:39;4.07;;;2.53;;
13435;SDS011;6790;49.520;8.504;2023-06-01T10:02:16;5.13;;;2.60;;
13435;SDS011;6790;49.520;8.504;2023-06-01T10:04:50;4.50;;;2.75;;
13435;SDS011;6790;49.520;8.504;2023-06-01T10:07:18;4.18;;;2.50;;
13435;SDS011;6790;49.520;8.504;2023-06-01T10:09:46;4.68;;;2.30;;
13435;SDS011;6790;49.520;8.504;2023-06-01T10:12:16;4.75;;;2.50;;
13435;SDS011;6790;49.520;8.504;2023-06-01T10:14:42;3.53;;;2.72;;
13435;SDS011;6790;49.520;8.504;2023-06-01T10:17:08;5.97;;;2.90;;
13435;SDS011;6790;49.520;8.504;2023-06-01T10:19:37;5.10;;;2.45;;
13435;SDS011;6790;49.520;8.504;2023-06-01T10:22:03;4.10;;;2.60;;
13435;SDS011;6790;49.520;8.504;2023-06-01T10:24:31;3.60;;;2.22;;
13435;SDS011;6790;49.520;8.504;2023-06-01T10:29:51;3.15;;;2.60;;
13435;SDS011;6790;49.520;8.504;2023-06-01T10:35:09;3.08;;;2.38;;
13435;SDS011;6790;49.520;8.504;2023-06-01T10:40:42;3.97;;;2.60;;
13435;SDS011;6790;49.520;8.504;2023-06-01T10:46:00;4.63;;;2.50;;
13435;SDS011;6790;49.520;8.504;2023-06-01T10:51:18;3.55;;;2.67;;
13435;SDS011;6790;49.520;8.504;2023-06-01T10:53:45;4.43;;;2.45;;
13435;SDS011;6790;49.520;8.504;2023-06-01T10:56:24;4.38;;;2.50;;
13435;SDS011;6790;49.520;8.504;2023-06-01T11:01:45;5.47;;;2.58;;
13435;SDS011;6790;49.520;8.504;2023-06-01T11:04:12;3.53;;;2.55;;
13435;SDS011;6790;49.520;8.504;2023-06-01T11:06:39;7.55;;;3.35;;
13435;SDS011;6790;49.520;8.504;2023-06-01T11:09:08;5.60;;;2.42;;
13435;SDS011;6790;49.520;8.504;2023-06-01T11:14:13;7.25;;;2.60;;
13435;SDS011;6790;49.520;8.504;2023-06-01T11:16:40;4.43;;;2.60;;
13435;SDS011;6790;49.520;8.504;2023-06-01T11:19:06;3.47;;;2.35;;
13435;SDS011;6790;49.520;8.504;2023-06-01T11:21:35;6.35;;;2.50;;
13435;SDS011;6790;49.520;8.504;2023-06-01T11:24:14;5.40;;;2.60;;
13435;SDS011;6790;49.520;8.504;2023-06-01T11:26:43;4.13;;;2.40;;
13435;SDS011;6790;49.520;8.504;2023-06-01T11:29:11;5.40;;;2.70;;
13435;SDS011;6790;49.520;8.504;2023-06-01T11:31:54;4.20;;;2.30;;
13435;SDS011;6790;49.520;8.504;2023-06-01T11:34:29;3.45;;;2.50;;
13435;SDS011;6790;49.520;8.504;2023-06-01T11:37:02;3.40;;;2.35;;
13435;SDS011;6790;49.520;8.504;2023-06-01T11:39:30;4.85;;;2.70;;
13435;SDS011;6790;49.520;8.504;2023-06-01T11:42:04;4.50;;;2.40;;
13435;SDS011;6790;49.520;8.504;2023-06-01T11:44:39;2.90;;;2.30;;
13435;SDS011;6790;49.520;8.504;2023-06-01T11:47:06;3.78;;;2.60;;
13435;SDS011;6790;49.520;8.504;2023-06-01T11:49:43;3.95;;;2.60;;
13435;SDS011;6790;49.520;8.504;2023-06-01T11:52:12;4.43;;;2.22;;
13435;SDS011;6790;49.520;8.504;2023-06-01T11:54:38;5.05;;;2.42;;
13435;SDS011;6790;49.520;8.504;2023-06-01T11:57:04;7.18;;;2.70;;
13435;SDS011;6790;49.520;8.504;2023-06-01T11:59:37;9.30;;;2.60;;
13435;SDS011;6790;49.520;8.504;2023-06-01T12:02:15;3.75;;;2.17;;
13435;SDS011;6790;49.520;8.504;2023-06-01T12:07:26;2.92;;;2.30;;
13435;SDS011;6790;49.520;8.504;2023-06-01T12:09:53;7.15;;;2.70;;
13435;SDS011;6790;49.520;8.504;2023-06-01T12:12:23;3.25;;;2.38;;
13435;SDS011;6790;49.520;8.504;2023-06-01T12:14:50;4.63;;;2.60;;
13435;SDS011;6790;49.520;8.504;2023-06-01T12:17:17;3.60;;;2.40;;
13435;SDS011;6790;49.520;8.504;2023-06-01T12:19:46;4.82;;;2.65;;
13435;SDS011;6790;49.520;8.504;2023-06-01T12:22:14;5.60;;;2.78;;
13435;SDS011;6790;49.520;8.504;2023-06-01T12:24:41;3.10;;;2.30;;
13435;SDS011;6790;49.520;8.504;2023-06-01T12:27:15;3.47;;;2.40;;
13435;SDS011;6790;49.520;8.504;2023-06-01T12:29:44;4.18;;;2.50;;
13435;SDS011;6790;49.520;8.504;2023-06-01T12:32:12;3.28;;;2.58;;
13435;SDS011;6790;49.520;8.504;2023-06-01T12:34:42;2.40;;;2.13;;
13435;SDS011;6790;49.520;8.504;2023-06-01T12:37:13;4.50;;;2.60;;
13435;SDS011;6790;49.520;8.504;2023-06-01T12:39:40;3.60;;;2.40;;
13435;SDS011;6790;49.520;8.504;2023-06-01T12:42:06;4.72;;;2.90;;
13435;SDS011;6790;49.520;8.504;2023-06-01T12:44:34;3.08;;;2.60;;
13435;SDS011;6790;49.520;8.504;2023-06-01T12:47:00;3.30;;;2.60;;
13435;SDS011;6790;49.520;8.504;2023-06-01T12:49:26;6.50;;;2.70;;
13435;SDS011;6790;49.520;8.504;2023-06-01T12:51:53;2.83;;;2.33;;
13435;SDS011;6790;49.520;8.504;2023-06-01T12:54:18;4.07;;;2.75;;
13435;SDS011;6790;49.520;8.504;2023-06-01T12:56:44;2.88;;;2.42;;
13435;SDS011;6790;49.520;8.504;2023-06-01T12:59:12;2.60;;;2.40;;
13435;SDS011;6790;49.520;8.504;2023-06-01T13:01:38;4.90;;;2.50;;
13435;SDS011;6790;49.520;8.504;2023-06-01T13:04:04;5.20;;;2.92;;
13435;SDS011;6790;49.520;8.504;2023-06-01T13:06:29;4.88;;;2.50;;
13435;SDS011;6790;49.520;8.504;2023-06-01T13:08:55;3.30;;;2.28;;
13435;SDS011;6790;49.520;8.504;2023-06-01T13:11:22;4.05;;;2.55;;
13435;SDS011;6790;49.520;8.504;2023-06-01T13:13:48;6.47;;;2.80;;
13435;SDS011;6790;49.520;8.504;2023-06-01T13:16:14;5.60;;;2.67;;
13435;SDS011;6790;49.520;8.504;2023-06-01T13:18:40;6.18;;;2.67;;
13435;SDS011;6790;49.520;8.504;2023-06-01T13:21:06;4.40;;;2.92;;
13435;SDS011;6790;49.520;8.504;2023-06-01T13:23:32;4.38;;;2.60;;
13435;SDS011;6790;49.520;8.504;2023-06-01T13:25:58;7.82;;;2.83;;
13435;SDS011;6790;49.520;8.504;2023-06-01T13:28:24;3.92;;;2.67;;
13435;SDS011;6790;49.520;8.504;2023-06-01T13:30:50;3.60;;;2.65;;
13435;SDS011;6790;49.520;8.504;2023-06-01T13:33:15;4.25;;;2.60;;
13435;SDS011;6790;49.520;8.504;2023-06-01T13:35:41;4.90;;;4.05;;
13435;SDS011;6790;49.520;8.504;2023-06-01T13:38:07;4.75;;;3.85;;
13435;SDS011;6790;49.520;8.504;2023-06-01T13:40:33;3.97;;;2.88;;
13435;SDS011;6790;49.520;8.504;2023-06-01T13:42:59;3.03;;;2.45;;
13435;SDS011;6790;49.520;8.504;2023-06-01T13:45:25;5.40;;;2.70;;
13435;SDS011;6790;49.520;8.504;2023-06-01T13:47:52;4.10;;;2.70;;
13435;SDS011;6790;49.520;8.504;2023-06-01T13:50:20;3.28;;;2.25;;
13435;SDS011;6790;49.520;8.504;2023-06-01T13:52:46;4.75;;;2.55;;
13435;SDS011;6790;49.520;8.504;2023-06-01T13:55:12;5.18;;;2.65;;
13435;SDS011;6790;49.520;8.504;2023-06-01T13:57:38;5.20;;;2.60;;
13435;SDS011;6790;49.520;8.504;2023-06-01T14:00:05;3.90;;;2.38;;
13435;SDS011;6790;49.520;8.504;2023-06-01T14:02:33;4.30;;;2.50;;
13435;SDS011;6790;49.520;8.504;2023-06-01T14:05:00;3.53;;;2.58;;
13435;SDS011;6790;49.520;8.504;2023-06-01T14:07:26;5.63;;;2.58;;
13435;SDS011;6790;49.520;8.504;2023-06-01T14:09:52;4.13;;;2.95;;
13435;SDS011;6790;49.520;8.504;2023-06-01T14:12:18;4.32;;;2.63;;
13435;SDS011;6790;49.520;8.504;2023-06-01T14:14:44;6.43;;;2.80;;
13435;SDS011;6790;49.520;8.504;2023-06-01T14:17:10;3.95;;;2.45;;
13435;SDS011;6790;49.520;8.504;2023-06-01T14:19:36;5.20;;;2.60;;
13435;SDS011;6790;49.520;8.504;2023-06-01T14:22:01;3.50;;;2.55;;
13435;SDS011;6790;49.520;8.504;2023-06-01T14:24:27;5.43;;;2.72;;
13435;SDS011;6790;49.520;8.504;2023-06-01T14:26:53;3.47;;;2.70;;
13435;SDS011;6790;49.520;8.504;2023-06-01T14:29:18;4.68;;;2.85;;
13435;SDS011;6790;49.520;8.504;2023-06-01T14:31:45;3.10;;;2.40;;
13435;SDS011;6790;49.520;8.504;2023-06-01T14:34:10;4.20;;;2.50;;
13435;SDS011;6790;49.520;8.504;2023-06-01T14:36:36;4.32;;;2.63;;
13435;SDS011;6790;49.520;8.504;2023-06-01T14:39:02;4.53;;;2.22;;
13435;SDS011;6790;49.520;8.504;2023-06-01T14:41:28;4.50;;;2.50;;
13435;SDS011;6790;49.520;8.504;2023-06-01T14:43:54;3.67;;;2.22;;
13435;SDS011;6790;49.520;8.504;2023-06-01T14:46:19;3.38;;;2.53;;
13435;SDS011;6790;49.520;8.504;2023-06-01T14:48:46;6.15;;;2.40;;
13435;SDS011;6790;49.520;8.504;2023-06-01T14:51:12;17.05;;;4.57;;
13435;SDS011;6790;49.520;8.504;2023-06-01T14:53:37;5.60;;;2.80;;
13435;SDS011;6790;49.520;8.504;2023-06-01T14:56:04;4.95;;;2.50;;
13435;SDS011;6790;49.520;8.504;2023-06-01T14:58:31;8.63;;;2.78;;
13435;SDS011;6790;49.520;8.504;2023-06-01T15:00:57;6.13;;;2.53;;
13435;SDS011;6790;49.520;8.504;2023-06-01T15:03:23;6.28;;;2.67;;
13435;SDS011;6790;49.520;8.504;2023-06-01T15:05:49;5.97;;;2.30;;
13435;SDS011;6790;49.520;8.504;2023-06-01T15:08:16;4.03;;;2.33;;
13435;SDS011;6790;49.520;8.504;2023-06-01T15:10:44;5.05;;;2.50;;
13435;SDS011;6790;49.520;8.504;2023-06-01T15:13:10;5.78;;;2.30;;
13435;SDS011;6790;49.520;8.504;2023-06-01T15:15:38;4.75;;;2.20;;
13435;SDS011;6790;49.520;8.504;2023-06-01T15:18:07;2.33;;;2.10;;
13435;SDS011;6790;49.520;8.504;2023-06-01T15:20:33;4.18;;;3.42;;
13435;SDS011;6790;49.520;8.504;2023-06-01T15:22:58;2.72;;;2.28;;
13435;SDS011;6790;49.520;8.504;2023-06-01T15:25:24;3.33;;;2.10;;
13435;SDS011;6790;49.520;8.504;2023-06-01T15:27:50;3.20;;;2.13;;
13435;SDS011;6790;49.520;8.504;2023-06-01T15:30:15;6.47;;;2.53;;
13435;SDS011;6790;49.520;8.504;2023-06-01T15:32:41;2.65;;;2.13;;
13435;SDS011;6790;49.520;8.504;2023-06-01T15:35:07;3.03;;;2.38;;
13435;SDS011;6790;49.520;8.504;2023-06-01T15:37:39;3.50;;;2.25;;
13435;SDS011;6790;49.520;8.504;2023-06-01T15:40:11;3.85;;;2.17;;
13435;SDS011;6790;49.520;8.504;2023-06-01T15:42:38;4.10;;;2.10;;
13435;SDS011;6790;49.520;8.504;2023-06-01T15:45:05;5.50;;;3.50;;
13435;SDS011;6790;49.520;8.504;2023-06-01T15:47:31;5.70;;;2.60;;
13435;SDS011;6790;49.520;8.504;2023-06-01T15:49:57;3.90;;;2.38;;